Time;durP1;ratioP1;P1;durP2;ratioP2;P2;SDS_P1;SDS_P2;PMS_P1;PMS_P2;Temp;Humidity;BMP_temperature;BMP_pressure;BME280_temperature;BME280_humidity;BME280_pressure;Samples;Min_cycle;Max_cycle;Signal;HPM_P1;HPM_P2
2023/12/04 00:00:18;;;;;;;40.27;17.57;;;;;;;;;;5008118;28;20601;-82
2023/12/04 00:02:44;;;;;;;36.13;17.13;;;;;;;;;;5019748;28;20025;-82
2023/12/04 00:05:10;;;;;;;36.17;17.53;;;;;;;;;;5019837;28;20347;-81
2023/12/04 00:07:36;;;;;;;38.07;17.23;;;;;;;;;;5019961;28;20099;-82
2023/12/04 00:10:02;;;;;;;37.57;17.03;;;;;;;;;;5014891;28;20260;-80
2023/12/04 00:12:28;;;;;;;35.53;17.77;;;;;;;;;;5019467;28;20091;-81
2023/12/04 00:14:54;;;;;;;39.43;17.87;;;;;;;;;;5019885;28;20692;-81
2023/12/04 00:17:23;;;;;;;37.33;17.53;;;;;;;;;;5019896;28;20041;-81
2023/12/04 00:19:49;;;;;;;35.53;16.80;;;;;;;;;;5015241;28;20280;-81
2023/12/04 00:22:15;;;;;;;40.43;17.47;;;;;;;;;;5030574;28;20279;-81
2023/12/04 00:24:41;;;;;;;37.60;17.50;;;;;;;;;;5027740;28;20110;-82
2023/12/04 00:27:07;;;;;;;40.80;17.37;;;;;;;;;;5025918;28;20025;-82
2023/12/04 00:29:32;;;;;;;39.10;16.60;;;;;;;;;;5016958;28;20362;-81
2023/12/04 00:31:58;;;;;;;35.50;18.40;;;;;;;;;;5016869;28;20029;-80
2023/12/04 00:34:24;;;;;;;37.37;17.03;;;;;;;;;;5034518;28;20025;-82
2023/12/04 00:36:50;;;;;;;37.37;16.47;;;;;;;;;;5025662;28;20025;-84
2023/12/04 00:39:17;;;;;;;39.17;17.60;;;;;;;;;;5017491;28;20099;-79
2023/12/04 00:41:42;;;;;;;33.63;16.33;;;;;;;;;;5028490;28;20049;-80
2023/12/04 00:44:10;;;;;;;37.63;18.00;;;;;;;;;;5018114;28;20304;-81
2023/12/04 00:46:36;;;;;;;37.00;16.73;;;;;;;;;;5016280;28;20109;-82
2023/12/04 00:49:02;;;;;;;34.57;16.00;;;;;;;;;;5016625;28;21087;-82
2023/12/04 00:51:28;;;;;;;36.90;15.77;;;;;;;;;;5015197;28;20045;-81
2023/12/04 00:53:54;;;;;;;33.90;16.47;;;;;;;;;;5016432;28;20060;-81
2023/12/04 00:56:20;;;;;;;32.37;15.93;;;;;;;;;;5017135;28;20080;-81
2023/12/04 00:58:46;;;;;;;37.00;17.00;;;;;;;;;;5015359;28;20271;-84
2023/12/04 01:01:15;;;;;;;36.20;15.93;;;;;;;;;;5016631;28;20298;-81
2023/12/04 01:03:41;;;;;;;33.63;16.17;;;;;;;;;;5014412;28;20643;-81
2023/12/04 01:06:07;;;;;;;31.87;15.13;;;;;;;;;;5015538;28;20312;-82
2023/12/04 01:08:33;;;;;;;37.60;18.23;;;;;;;;;;5015284;28;20314;-79
2023/12/04 01:11:01;;;;;;;34.50;16.13;;;;;;;;;;5016679;28;20292;-84
2023/12/04 01:13:33;;;;;;;29.27;15.13;;;;;;;;;;5018564;28;20041;-80
2023/12/04 01:15:59;;;;;;;32.13;16.23;;;;;;;;;;5017133;28;20343;-83
2023/12/04 01:18:25;;;;;;;33.07;15.33;;;;;;;;;;5018219;28;20369;-81
2023/12/04 01:20:51;;;;;;;33.37;15.70;;;;;;;;;;5016276;28;20029;-81
2023/12/04 01:23:17;;;;;;;32.07;15.30;;;;;;;;;;5015798;28;21815;-81
2023/12/04 01:25:44;;;;;;;33.40;16.27;;;;;;;;;;5015449;28;20021;-80
2023/12/04 01:28:10;;;;;;;31.40;15.57;;;;;;;;;;5015632;28;20561;-80
2023/12/04 01:30:36;;;;;;;30.37;15.40;;;;;;;;;;5016232;28;20351;-82
2023/12/04 01:33:02;;;;;;;41.73;17.53;;;;;;;;;;5016008;28;20362;-82
2023/12/04 01:35:28;;;;;;;28.83;13.20;;;;;;;;;;5033093;28;20025;-81
2023/12/04 01:37:54;;;;;;;35.20;15.83;;;;;;;;;;5012987;28;20754;-80
2023/12/04 01:40:20;;;;;;;30.90;14.97;;;;;;;;;;5015989;28;20334;-81
2023/12/04 01:42:46;;;;;;;34.33;15.60;;;;;;;;;;5015352;28;20735;-83
2023/12/04 01:45:12;;;;;;;33.07;15.57;;;;;;;;;;5033264;28;20316;-80
2023/12/04 01:47:38;;;;;;;31.07;14.83;;;;;;;;;;5015791;28;20043;-81
2023/12/04 01:50:11;;;;;;;29.27;14.80;;;;;;;;;;5015842;28;20033;-80
2023/12/04 01:52:40;;;;;;;30.35;14.43;;;;;;;;;;5015809;28;20271;-81
2023/12/04 01:55:07;;;;;;;28.33;14.07;;;;;;;;;;5014988;28;20113;-81
2023/12/04 01:57:33;;;;;;;27.00;13.83;;;;;;;;;;5014335;28;20726;-82
2023/12/04 01:59:59;;;;;;;31.67;15.63;;;;;;;;;;5017404;28;20268;-79
2023/12/04 02:02:25;;;;;;;26.53;13.23;;;;;;;;;;5015859;28;20292;-80
2023/12/04 02:04:51;;;;;;;28.73;14.60;;;;;;;;;;5016021;28;20264;-80
2023/12/04 02:07:20;;;;;;;31.03;15.13;;;;;;;;;;5015354;28;20621;-80
2023/12/04 02:09:46;;;;;;;23.57;12.67;;;;;;;;;;5015631;28;20800;-79
2023/12/04 02:12:12;;;;;;;31.17;14.60;;;;;;;;;;5015887;28;20268;-81
2023/12/04 02:14:38;;;;;;;31.43;14.13;;;;;;;;;;5014811;28;20371;-80
2023/12/04 02:17:06;;;;;;;33.00;15.00;;;;;;;;;;5015924;28;20029;-81
2023/12/04 02:19:32;;;;;;;27.63;14.70;;;;;;;;;;5014567;28;20037;-82
2023/12/04 02:21:58;;;;;;;29.50;14.83;;;;;;;;;;5015712;28;20298;-79
2023/12/04 02:24:24;;;;;;;27.73;14.17;;;;;;;;;;5015677;28;20286;-81
2023/12/04 02:26:58;;;;;;;26.97;13.63;;;;;;;;;;5015267;28;20295;-81
2023/12/04 02:29:31;;;;;;;31.60;15.13;;;;;;;;;;5032156;28;20277;-80
2023/12/04 02:31:57;;;;;;;29.25;14.57;;;;;;;;;;5015729;28;20355;-81
2023/12/04 02:34:24;;;;;;;28.03;13.80;;;;;;;;;;5031458;28;20503;-80
2023/12/04 02:36:51;;;;;;;29.43;13.83;;;;;;;;;;5017916;28;20280;-81
2023/12/04 02:39:17;;;;;;;28.07;13.40;;;;;;;;;;5015205;28;20283;-83
2023/12/04 02:41:43;;;;;;;30.83;13.80;;;;;;;;;;5015304;28;20294;-83
2023/12/04 02:44:11;;;;;;;29.53;14.10;;;;;;;;;;5012591;28;20356;-81
2023/12/04 02:46:37;;;;;;;28.70;13.70;;;;;;;;;;5026435;28;20595;-80
2023/12/04 02:49:03;;;;;;;28.83;13.30;;;;;;;;;;5014396;28;20299;-81
2023/12/04 02:51:29;;;;;;;26.97;13.73;;;;;;;;;;5031348;28;20116;-79
2023/12/04 02:53:57;;;;;;;25.50;13.17;;;;;;;;;;5024776;28;20029;-81
2023/12/04 02:56:23;;;;;;;24.67;12.60;;;;;;;;;;5027914;28;20112;-80
2023/12/04 02:58:49;;;;;;;25.90;12.90;;;;;;;;;;5010945;28;21255;-81
2023/12/04 03:01:15;;;;;;;22.13;12.27;;;;;;;;;;5014433;28;20040;-81
2023/12/04 03:03:41;;;;;;;25.93;13.03;;;;;;;;;;5027581;28;20025;-81
2023/12/04 03:06:07;;;;;;;23.60;12.10;;;;;;;;;;5015043;28;20084;-80
2023/12/04 03:08:33;;;;;;;28.67;13.70;;;;;;;;;;5025273;28;20030;-79
2023/12/04 03:10:59;;;;;;;22.83;13.37;;;;;;;;;;5013931;28;20604;-81
2023/12/04 03:16:29;;;;;;;24.47;12.00;;;;;;;;;;5031460;28;20123;-79
2023/12/04 03:18:55;;;;;;;26.57;13.30;;;;;;;;;;5026070;28;20731;-80
2023/12/04 03:21:21;;;;;;;24.07;12.20;;;;;;;;;;5015616;28;20300;-81
2023/12/04 03:23:47;;;;;;;23.60;12.57;;;;;;;;;;5011992;28;20041;-81
2023/12/04 03:26:15;;;;;;;24.93;12.80;;;;;;;;;;5031994;28;20029;-81
2023/12/04 03:28:41;;;;;;;26.50;12.87;;;;;;;;;;5017074;28;20473;-80
2023/12/04 03:31:08;;;;;;;25.53;12.53;;;;;;;;;;5017897;28;20284;-81
2023/12/04 03:33:36;;;;;;;26.50;12.60;;;;;;;;;;5018855;28;20026;-80
2023/12/04 03:36:02;;;;;;;26.27;13.40;;;;;;;;;;5028907;28;20280;-82
2023/12/04 03:38:28;;;;;;;27.67;13.30;;;;;;;;;;5018606;28;20312;-80
2023/12/04 03:40:54;;;;;;;26.43;14.10;;;;;;;;;;5017911;28;20284;-80
2023/12/04 03:43:20;;;;;;;23.97;13.17;;;;;;;;;;5031811;28;20782;-83
2023/12/04 03:45:46;;;;;;;26.20;13.00;;;;;;;;;;5015929;28;20108;-80
2023/12/04 03:48:12;;;;;;;24.27;12.03;;;;;;;;;;5029926;28;20026;-81
2023/12/04 03:50:38;;;;;;;23.70;12.73;;;;;;;;;;5017390;28;20045;-79
2023/12/04 03:53:06;;;;;;;22.27;12.10;;;;;;;;;;5016366;28;20353;-82
2023/12/04 03:55:32;;;;;;;26.23;12.87;;;;;;;;;;5017720;28;20280;-82
2023/12/04 03:58:01;;;;;;;26.37;13.03;;;;;;;;;;5017265;28;20374;-81
2023/12/04 04:00:27;;;;;;;26.57;13.53;;;;;;;;;;5017886;28;20042;-80
2023/12/04 04:02:56;;;;;;;25.67;13.03;;;;;;;;;;5017809;28;20271;-83
2023/12/04 04:05:22;;;;;;;24.57;13.30;;;;;;;;;;5017143;28;20565;-81
2023/12/04 04:07:48;;;;;;;31.57;13.47;;;;;;;;;;5027464;28;20268;-81
2023/12/04 04:10:14;;;;;;;25.70;14.20;;;;;;;;;;5017237;28;20403;-81
2023/12/04 04:12:40;;;;;;;23.07;11.90;;;;;;;;;;5024067;28;20086;-82
2023/12/04 04:15:06;;;;;;;26.00;13.37;;;;;;;;;;5033932;28;20026;-81
2023/12/04 04:17:33;;;;;;;26.60;12.53;;;;;;;;;;5017770;28;20295;-80
2023/12/04 04:19:59;;;;;;;23.47;11.53;;;;;;;;;;5027283;28;20739;-80
2023/12/04 04:22:25;;;;;;;24.67;13.00;;;;;;;;;;5018310;28;20292;-79
2023/12/04 04:24:51;;;;;;;27.63;13.70;;;;;;;;;;5017022;28;20299;-81
2023/12/04 04:27:17;;;;;;;25.07;13.27;;;;;;;;;;5019210;28;20037;-83
2023/12/04 04:29:43;;;;;;;26.33;14.13;;;;;;;;;;5030198;28;20018;-82
2023/12/04 04:32:09;;;;;;;25.73;13.43;;;;;;;;;;5026650;28;20117;-80
2023/12/04 04:34:35;;;;;;;25.10;13.83;;;;;;;;;;5028555;28;20030;-84
2023/12/04 04:37:01;;;;;;;27.17;14.27;;;;;;;;;;5034154;28;20327;-82
2023/12/04 04:39:27;;;;;;;28.63;13.80;;;;;;;;;;5015329;28;20044;-79
2023/12/04 04:41:55;;;;;;;27.40;13.67;;;;;;;;;;5018134;28;20111;-84
2023/12/04 04:44:21;;;;;;;29.47;12.90;;;;;;;;;;5011172;28;20044;-82
2023/12/04 04:46:48;;;;;;;30.03;14.60;;;;;;;;;;5012833;28;20431;-85
2023/12/04 04:49:14;;;;;;;28.07;13.97;;;;;;;;;;5018529;28;20099;-84
2023/12/04 04:51:40;;;;;;;27.20;14.47;;;;;;;;;;5009274;28;20636;-83
2023/12/04 04:54:06;;;;;;;26.43;14.97;;;;;;;;;;5009948;28;20036;-83
2023/12/04 04:56:32;;;;;;;29.77;15.70;;;;;;;;;;5016173;28;20277;-82
2023/12/04 04:59:00;;;;;;;27.53;14.60;;;;;;;;;;5019654;28;20029;-82
2023/12/04 05:01:26;;;;;;;28.87;15.13;;;;;;;;;;5035972;28;20288;-82
2023/12/04 05:03:52;;;;;;;32.87;15.17;;;;;;;;;;5018755;28;20755;-81
2023/12/04 05:06:18;;;;;;;29.53;15.73;;;;;;;;;;5019387;28;20083;-83
2023/12/04 05:08:44;;;;;;;30.00;14.83;;;;;;;;;;5019451;28;20030;-82
2023/12/04 05:11:10;;;;;;;28.33;15.57;;;;;;;;;;5019129;28;20859;-82
2023/12/04 05:13:36;;;;;;;31.53;15.10;;;;;;;;;;5016997;28;20034;-85
2023/12/04 05:16:02;;;;;;;30.73;15.17;;;;;;;;;;5016850;28;20346;-83
2023/12/04 05:18:28;;;;;;;28.83;15.87;;;;;;;;;;5018774;28;20264;-83
2023/12/04 05:20:54;;;;;;;27.67;15.47;;;;;;;;;;5015240;28;20299;-83
2023/12/04 05:23:20;;;;;;;28.47;13.77;;;;;;;;;;5010455;28;20707;-83
2023/12/04 05:25:46;;;;;;;27.03;13.43;;;;;;;;;;5022429;28;20029;-84
2023/12/04 05:28:12;;;;;;;29.20;15.40;;;;;;;;;;5021219;28;20502;-84
2023/12/04 05:30:38;;;;;;;33.57;15.67;;;;;;;;;;5015211;28;20044;-82
2023/12/04 05:33:04;;;;;;;28.77;15.67;;;;;;;;;;5003303;28;20288;-83
2023/12/04 05:35:33;;;;;;;25.13;14.20;;;;;;;;;;5013430;28;20041;-81
2023/12/04 05:38:02;;;;;;;27.50;14.60;;;;;;;;;;5018918;28;20279;-83
2023/12/04 05:40:28;;;;;;;30.63;15.03;;;;;;;;;;5020107;28;20727;-83
2023/12/04 05:42:53;;;;;;;28.67;15.40;;;;;;;;;;5018449;28;20712;-83
2023/12/04 05:45:20;;;;;;;30.70;15.20;;;;;;;;;;5010677;28;20264;-87
2023/12/04 05:47:46;;;;;;;28.20;15.60;;;;;;;;;;5018953;28;20099;-86
2023/12/04 05:50:12;;;;;;;27.63;14.73;;;;;;;;;;5018301;28;20717;-82
2023/12/04 05:52:40;;;;;;;25.73;14.10;;;;;;;;;;5018948;28;20052;-88
2023/12/04 05:55:06;;;;;;;33.63;14.90;;;;;;;;;;5012470;28;20029;-88
2023/12/04 05:57:32;;;;;;;31.63;14.93;;;;;;;;;;5011760;28;20322;-82
2023/12/04 06:00:01;;;;;;;29.00;14.83;;;;;;;;;;5021129;28;20287;-85
2023/12/04 06:02:30;;;;;;;26.27;14.00;;;;;;;;;;5002889;28;20284;-83
2023/12/04 06:04:56;;;;;;;28.07;15.50;;;;;;;;;;5010342;28;20620;-82
2023/12/04 06:07:22;;;;;;;32.50;17.43;;;;;;;;;;5031964;28;20256;-82
2023/12/04 06:09:48;;;;;;;25.53;14.83;;;;;;;;;;5017934;28;20095;-82
2023/12/04 06:12:14;;;;;;;31.20;14.77;;;;;;;;;;5018637;28;20589;-82
2023/12/04 06:14:40;;;;;;;29.83;16.03;;;;;;;;;;5035588;28;20036;-83
2023/12/04 06:17:06;;;;;;;29.57;16.13;;;;;;;;;;5019740;28;20087;-82
2023/12/04 06:19:32;;;;;;;27.60;15.73;;;;;;;;;;5015746;28;20061;-84
2023/12/04 06:21:58;;;;;;;29.53;15.50;;;;;;;;;;5016905;28;20292;-83
2023/12/04 06:24:24;;;;;;;30.87;15.67;;;;;;;;;;5024919;28;20347;-83
2023/12/04 06:26:51;;;;;;;31.73;17.00;;;;;;;;;;5025326;28;20272;-83
2023/12/04 06:29:19;;;;;;;35.03;15.33;;;;;;;;;;5031389;28;20744;-81
2023/12/04 06:31:45;;;;;;;30.57;16.70;;;;;;;;;;5016010;28;20784;-81
2023/12/04 06:34:11;;;;;;;28.87;15.30;;;;;;;;;;5025460;28;20762;-81
2023/12/04 06:36:41;;;;;;;27.17;14.80;;;;;;;;;;5015874;28;20287;-81
2023/12/04 06:39:13;;;;;;;29.87;15.93;;;;;;;;;;5018098;28;20275;-82
2023/12/04 06:41:42;;;;;;;;;;;;;;;;;;5024698;28;20281;-81
2023/12/04 06:44:09;;;;;;;31.43;16.33;;;;;;;;;;5015284;28;19924;-81
2023/12/04 06:46:37;;;;;;;32.17;16.33;;;;;;;;;;5015382;28;20827;-79
2023/12/04 06:49:05;;;;;;;31.37;16.63;;;;;;;;;;5016160;28;20410;-83
2023/12/04 06:51:34;;;;;;;34.80;17.23;;;;;;;;;;5033241;28;20291;-83
2023/12/04 06:54:02;;;;;;;28.60;15.57;;;;;;;;;;5014850;28;20303;-81
2023/12/04 06:56:28;;;;;;;28.80;15.83;;;;;;;;;;5035569;28;20292;-82
2023/12/04 06:58:54;;;;;;;31.67;16.33;;;;;;;;;;5019715;28;20411;-82
2023/12/04 07:01:21;;;;;;;30.37;16.10;;;;;;;;;;5018102;28;20029;-81
2023/12/04 07:03:47;;;;;;;32.77;15.67;;;;;;;;;;5019528;28;20280;-83
2023/12/04 07:06:14;;;;;;;29.63;16.37;;;;;;;;;;5002995;28;20306;-82
2023/12/04 07:08:40;;;;;;;30.40;15.07;;;;;;;;;;5017915;28;20299;-84
2023/12/04 07:11:08;;;;;;;32.00;16.40;;;;;;;;;;5017614;28;20375;-83
2023/12/04 07:13:37;;;;;;;30.33;16.53;;;;;;;;;;5018670;28;20386;-80
2023/12/04 07:16:03;;;;;;;31.47;16.97;;;;;;;;;;5018947;28;20292;-81
2023/12/04 07:18:29;;;;;;;30.57;16.67;;;;;;;;;;5019304;28;20291;-81
2023/12/04 07:20:55;;;;;;;31.60;16.33;;;;;;;;;;5016893;28;20284;-84
2023/12/04 07:23:21;;;;;;;29.67;15.60;;;;;;;;;;5017160;28;20036;-83
2023/12/04 07:25:51;;;;;;;31.00;16.57;;;;;;;;;;5018928;28;20037;-84
2023/12/04 07:28:17;;;;;;;30.60;15.90;;;;;;;;;;5018219;28;20863;-84
2023/12/04 07:30:43;;;;;;;26.87;14.70;;;;;;;;;;5017519;28;20295;-81
2023/12/04 07:33:09;;;;;;;28.17;16.00;;;;;;;;;;5018981;28;20030;-81
2023/12/04 07:35:35;;;;;;;27.03;14.77;;;;;;;;;;5018248;28;20099;-83
2023/12/04 07:38:01;;;;;;;27.63;14.87;;;;;;;;;;5035754;28;20449;-83
2023/12/04 07:40:27;;;;;;;29.17;14.57;;;;;;;;;;5017792;28;20288;-80
2023/12/04 07:42:53;;;;;;;28.97;15.70;;;;;;;;;;5018933;28;20748;-88
2023/12/04 07:45:20;;;;;;;27.37;15.90;;;;;;;;;;5035802;28;20275;-87
2023/12/04 07:47:46;;;;;;;27.23;14.90;;;;;;;;;;5017377;28;20030;-80
2023/12/04 07:50:12;;;;;;;28.87;14.83;;;;;;;;;;5018113;28;20284;-87
2023/12/04 07:52:38;;;;;;;29.37;15.93;;;;;;;;;;5014595;28;20099;-84
2023/12/04 07:55:04;;;;;;;32.90;16.33;;;;;;;;;;5017141;28;20272;-83
2023/12/04 07:57:32;;;;;;;25.73;14.43;;;;;;;;;;5017250;28;20279;-85
2023/12/04 07:59:58;;;;;;;31.37;15.97;;;;;;;;;;5018332;28;20280;-85
2023/12/04 08:02:24;;;;;;;27.27;14.87;;;;;;;;;;5035939;28;20284;-81
2023/12/04 08:04:50;;;;;;;25.43;14.67;;;;;;;;;;5018575;28;20374;-83
2023/12/04 08:07:16;;;;;;;31.73;16.27;;;;;;;;;;5017038;28;20295;-86
2023/12/04 08:09:42;;;;;;;31.23;15.37;;;;;;;;;;5019051;28;20033;-88
2023/12/04 08:12:08;;;;;;;33.17;16.97;;;;;;;;;;5034487;28;20053;-84
2023/12/04 08:14:34;;;;;;;28.17;14.67;;;;;;;;;;5036584;28;20037;-82
2023/12/04 08:17:00;;;;;;;25.20;13.60;;;;;;;;;;5016132;28;20287;-84
2023/12/04 08:19:26;;;;;;;27.97;14.53;;;;;;;;;;5018273;28;20283;-87
2023/12/04 08:21:52;;;;;;;25.70;14.37;;;;;;;;;;5033998;28;20496;-83
2023/12/04 08:24:18;;;;;;;29.90;15.00;;;;;;;;;;5017387;28;20029;-84
2023/12/04 08:26:45;;;;;;;27.67;14.90;;;;;;;;;;5018205;28;20800;-81
2023/12/04 08:29:12;;;;;;;27.37;14.30;;;;;;;;;;5018253;28;20284;-83
2023/12/04 08:31:38;;;;;;;28.33;15.03;;;;;;;;;;5017422;28;20624;-82
2023/12/04 08:34:04;;;;;;;23.23;13.13;;;;;;;;;;5019354;28;20355;-81
2023/12/04 08:36:30;;;;;;;28.43;15.00;;;;;;;;;;5017157;28;20029;-85
2023/12/04 08:38:56;;;;;;;26.40;13.70;;;;;;;;;;5019792;28;22048;-88
2023/12/04 08:41:22;;;;;;;26.77;14.87;;;;;;;;;;5015914;28;20292;-83
2023/12/04 08:43:48;;;;;;;27.83;14.27;;;;;;;;;;5029375;28;20359;-88
2023/12/04 08:46:17;;;;;;;26.60;14.07;;;;;;;;;;5013982;28;20044;-83
2023/12/04 08:48:43;;;;;;;25.47;12.90;;;;;;;;;;5034918;28;20018;-89
2023/12/04 08:51:09;;;;;;;26.17;14.23;;;;;;;;;;5032189;28;20292;-91
2023/12/04 08:53:35;;;;;;;24.60;13.10;;;;;;;;;;5017470;28;20291;-85
2023/12/04 08:56:02;;;;;;;25.67;14.03;;;;;;;;;;5016912;28;20029;-87
2023/12/04 08:58:31;;;;;;;24.47;13.70;;;;;;;;;;5031519;28;20887;-86
2023/12/04 09:00:57;;;;;;;26.17;14.00;;;;;;;;;;5018161;28;20752;-91
2023/12/04 09:03:23;;;;;;;25.90;13.33;;;;;;;;;;5018105;28;20359;-91
2023/12/04 09:05:51;;;;;;;20.93;11.43;;;;;;;;;;5018161;28;20446;-90
2023/12/04 09:08:18;;;;;;;22.60;12.47;;;;;;;;;;5017115;28;20272;-90
2023/12/04 09:10:45;;;;;;;22.33;12.07;;;;;;;;;;5029848;28;20312;-91
2023/12/04 09:13:11;;;;;;;20.33;11.70;;;;;;;;;;5017788;28;20798;-91
2023/12/04 09:15:39;;;;;;;22.77;12.27;;;;;;;;;;5018293;28;20312;-89
2023/12/04 09:18:05;;;;;;;23.07;13.23;;;;;;;;;;5031049;28;20276;-89
2023/12/04 09:20:31;;;;;;;22.60;12.17;;;;;;;;;;5035431;28;20371;-92
2023/12/04 09:22:57;;;;;;;21.03;11.67;;;;;;;;;;5015624;28;20029;-91
2023/12/04 09:25:23;;;;;;;24.57;12.10;;;;;;;;;;5002394;28;20748;-89
2023/12/04 09:27:51;;;;;;;23.83;12.00;;;;;;;;;;5017526;28;20273;-88
2023/12/04 09:30:20;;;;;;;21.47;12.60;;;;;;;;;;5018585;28;20029;-90
2023/12/04 09:32:46;;;;;;;21.07;11.90;;;;;;;;;;5017285;28;20280;-93
2023/12/04 09:35:12;;;;;;;21.77;11.97;;;;;;;;;;5017243;28;20280;-91
2023/12/04 09:37:39;;;;;;;18.83;10.57;;;;;;;;;;5013672;28;21713;-89
2023/12/04 09:40:05;;;;;;;20.03;10.23;;;;;;;;;;5014587;28;20282;-88
2023/12/04 09:42:32;;;;;;;20.47;12.00;;;;;;;;;;5015723;28;20307;-88
2023/12/04 09:44:59;;;;;;;24.03;11.93;;;;;;;;;;5018315;28;20284;-89
2023/12/04 09:47:26;;;;;;;19.00;11.40;;;;;;;;;;5018826;28;20341;-88
2023/12/04 09:49:53;;;;;;;18.00;10.60;;;;;;;;;;5016601;28;20268;-87
2023/12/04 09:52:20;;;;;;;22.57;12.17;;;;;;;;;;5016238;28;20294;-88
2023/12/04 09:54:46;;;;;;;20.57;10.87;;;;;;;;;;5016513;28;20620;-89
2023/12/04 09:57:15;;;;;;;20.33;11.83;;;;;;;;;;5017923;28;20280;-91
2023/12/04 09:59:41;;;;;;;17.47;10.43;;;;;;;;;;5015852;28;20287;-89
2023/12/04 10:02:07;;;;;;;21.27;11.30;;;;;;;;;;5017273;28;20284;-87
2023/12/04 10:04:34;;;;;;;18.20;10.70;;;;;;;;;;5017087;28;20286;-86
2023/12/04 10:07:00;;;;;;;18.73;9.70;;;;;;;;;;5016639;28;20044;-88
2023/12/04 10:09:26;;;;;;;20.47;10.57;;;;;;;;;;5018308;28;20356;-89
2023/12/04 10:11:52;;;;;;;19.53;11.40;;;;;;;;;;5018647;28;20752;-92
2023/12/04 10:14:19;;;;;;;20.13;10.77;;;;;;;;;;5037173;28;20314;-89
2023/12/04 10:16:49;;;;;;;20.23;10.40;;;;;;;;;;5035862;28;20310;-88
2023/12/04 10:19:19;;;;;;;19.73;10.90;;;;;;;;;;5018972;28;20280;-85
2023/12/04 10:21:46;;;;;;;19.77;10.70;;;;;;;;;;5032767;28;20291;-88
2023/12/04 10:24:12;;;;;;;19.00;10.20;;;;;;;;;;5034119;28;20280;-84
2023/12/04 10:26:40;;;;;;;19.33;9.73;;;;;;;;;;5034695;28;20282;-87
2023/12/04 10:29:06;;;;;;;17.77;10.03;;;;;;;;;;5018918;28;20283;-85
2023/12/04 10:31:33;;;;;;;19.70;11.03;;;;;;;;;;5019199;28;20338;-87
2023/12/04 10:33:59;;;;;;;19.30;10.20;;;;;;;;;;5037617;28;20385;-87
2023/12/04 10:36:25;;;;;;;16.80;10.30;;;;;;;;;;5022248;28;20339;-83
2023/12/04 10:39:01;;;;;;;18.57;10.33;;;;;;;;;;5020154;28;20275;-85
2023/12/04 10:41:27;;;;;;;18.93;11.03;;;;;;;;;;5022657;28;20076;-85
2023/12/04 10:43:53;;;;;;;18.70;10.33;;;;;;;;;;5025369;28;20318;-85
2023/12/04 10:46:22;;;;;;;18.13;10.60;;;;;;;;;;5025522;28;20275;-86
2023/12/04 10:48:48;;;;;;;17.10;9.47;;;;;;;;;;5016987;28;20332;-86
2023/12/04 10:51:17;;;;;;;17.73;10.27;;;;;;;;;;5023712;28;20280;-85
2023/12/04 10:53:44;;;;;;;15.73;9.53;;;;;;;;;;5023483;28;20288;-83
2023/12/04 10:56:10;;;;;;;22.50;11.17;;;;;;;;;;5022832;28;20338;-79
2023/12/04 10:58:39;;;;;;;18.03;10.50;;;;;;;;;;5038721;28;20341;-86
2023/12/04 11:01:08;;;;;;;23.27;10.70;;;;;;;;;;5043759;28;20291;-83
2023/12/04 11:03:42;;;;;;;20.23;11.80;;;;;;;;;;5024358;28;21056;-81
2023/12/04 11:06:09;;;;;;;21.53;11.70;;;;;;;;;;5023993;28;20279;-82
2023/12/04 11:08:36;;;;;;;20.90;11.20;;;;;;;;;;5010431;28;20265;-81
2023/12/04 11:11:03;;;;;;;19.20;10.70;;;;;;;;;;5040765;28;20275;-83
2023/12/04 11:13:43;;;;;;;18.90;10.40;;;;;;;;;;5040199;28;20275;-83
2023/12/04 11:16:15;;;;;;;22.97;11.00;;;;;;;;;;5024010;28;20283;-82
2023/12/04 11:18:44;;;;;;;20.40;11.27;;;;;;;;;;5021709;28;20278;-82
2023/12/04 11:21:10;;;;;;;20.77;11.47;;;;;;;;;;5023056;28;20037;-85
2023/12/04 11:23:37;;;;;;;18.23;10.37;;;;;;;;;;5034394;28;20293;-81
2023/12/04 11:26:07;;;;;;;20.13;12.67;;;;;;;;;;5022724;28;20271;-83
2023/12/04 11:28:34;;;;;;;23.07;12.23;;;;;;;;;;5016834;28;20319;-82
2023/12/04 11:31:04;;;;;;;18.37;10.63;;;;;;;;;;5036853;28;20280;-83
2023/12/04 11:33:34;;;;;;;17.80;10.83;;;;;;;;;;5021428;28;20294;-82
2023/12/04 11:36:08;;;;;;;21.97;12.40;;;;;;;;;;5015434;28;20268;-82
2023/12/04 11:38:34;;;;;;;25.27;12.67;;;;;;;;;;5028782;28;20265;-81
2023/12/04 11:41:19;;;;;;;24.03;12.57;;;;;;;;;;5018412;28;20342;-82
2023/12/04 11:47:15;;;;;;;20.83;11.40;;;;;;;;;;5036597;28;20580;-82
2023/12/04 11:49:44;;;;;;;21.33;11.73;;;;;;;;;;4948924;29;20287;-82
2023/12/04 11:52:12;;;;;;;25.17;11.97;;;;;;;;;;4946112;29;20039;-81
2023/12/04 11:54:58;;;;;;;20.10;12.07;;;;;;;;;;4958610;29;20279;-81
2023/12/04 11:57:25;;;;;;;21.40;11.97;;;;;;;;;;4958239;29;20267;-81
2023/12/04 11:59:52;;;;;;;23.30;12.10;;;;;;;;;;4958849;29;20261;-81
2023/12/04 12:02:18;;;;;;;24.43;12.67;;;;;;;;;;4971531;28;20286;-81
2023/12/04 12:04:47;;;;;;;23.53;12.87;;;;;;;;;;4963388;28;20260;-81
2023/12/04 12:07:15;;;;;;;21.47;12.40;;;;;;;;;;4968346;28;20329;-80
2023/12/04 12:09:41;;;;;;;24.07;12.90;;;;;;;;;;4962032;28;20282;-80
2023/12/04 12:12:07;;;;;;;25.10;12.83;;;;;;;;;;4945692;28;20296;-80
2023/12/04 12:14:34;;;;;;;30.73;15.63;;;;;;;;;;4942588;29;20321;-81
2023/12/04 12:17:03;;;;;;;25.83;14.00;;;;;;;;;;4960936;28;20278;-80
2023/12/04 12:19:31;;;;;;;26.30;13.83;;;;;;;;;;4955266;28;20627;-79
2023/12/04 12:21:58;;;;;;;32.20;16.00;;;;;;;;;;4939428;29;20027;-82
2023/12/04 12:24:26;;;;;;;33.73;15.40;;;;;;;;;;4955712;28;21295;-80
2023/12/04 12:26:52;;;;;;;24.93;14.07;;;;;;;;;;4992528;28;20306;-80
2023/12/04 12:29:18;;;;;;;28.17;14.60;;;;;;;;;;5017475;28;20283;-80
2023/12/04 12:31:46;;;;;;;26.67;14.00;;;;;;;;;;5017504;28;20743;-79
2023/12/04 12:34:12;;;;;;;26.87;13.90;;;;;;;;;;5018352;28;20331;-81
2023/12/04 12:36:38;;;;;;;24.53;13.97;;;;;;;;;;5017995;28;20303;-84
2023/12/04 12:39:04;;;;;;;27.23;13.23;;;;;;;;;;5030186;28;20033;-81
2023/12/04 12:41:31;;;;;;;26.40;14.87;;;;;;;;;;5017356;28;20342;-83
2023/12/04 12:43:57;;;;;;;26.33;13.50;;;;;;;;;;5017515;28;20299;-80
2023/12/04 12:46:23;;;;;;;25.30;13.27;;;;;;;;;;5016413;28;20354;-81
2023/12/04 12:48:49;;;;;;;25.67;13.07;;;;;;;;;;5017232;28;20272;-81
2023/12/04 12:51:15;;;;;;;30.13;14.30;;;;;;;;;;5020250;28;20096;-80
2023/12/04 12:53:41;;;;;;;30.40;14.00;;;;;;;;;;5027650;28;20120;-81
2023/12/04 12:56:07;;;;;;;25.10;12.63;;;;;;;;;;5017032;28;20373;-80
2023/12/04 12:58:34;;;;;;;25.30;13.67;;;;;;;;;;5018185;28;20040;-81
2023/12/04 13:01:03;;;;;;;26.00;14.57;;;;;;;;;;5034269;28;20366;-81
2023/12/04 13:03:33;;;;;;;28.53;14.53;;;;;;;;;;5015216;28;20283;-85
2023/12/04 13:05:59;;;;;;;38.90;20.27;;;;;;;;;;5017569;28;20303;-83
2023/12/04 13:08:25;;;;;;;29.83;13.87;;;;;;;;;;5032962;28;20280;-84
2023/12/04 13:10:52;;;;;;;27.30;14.97;;;;;;;;;;5018276;28;20060;-83
2023/12/04 13:13:18;;;;;;;25.23;13.47;;;;;;;;;;5033110;28;20061;-80
2023/12/04 13:15:44;;;;;;;26.43;14.47;;;;;;;;;;5015888;28;22050;-83
2023/12/04 13:18:10;;;;;;;28.07;14.87;;;;;;;;;;5016898;28;20120;-80
2023/12/04 13:20:36;;;;;;;26.53;15.37;;;;;;;;;;5014975;28;20033;-79
2023/12/04 13:23:02;;;;;;;25.70;13.97;;;;;;;;;;5017057;28;20368;-80
2023/12/04 13:25:32;;;;;;;24.33;13.83;;;;;;;;;;5034910;28;20030;-80
2023/12/04 13:27:58;;;;;;;30.10;14.47;;;;;;;;;;5034110;28;20030;-82
2023/12/04 13:30:23;;;;;;;32.57;17.10;;;;;;;;;;5033065;28;20282;-81
2023/12/04 13:32:50;;;;;;;28.57;14.17;;;;;;;;;;5016674;28;20043;-79
2023/12/04 13:35:16;;;;;;;29.20;14.23;;;;;;;;;;5016290;28;20529;-79
2023/12/04 13:37:44;;;;;;;29.37;14.77;;;;;;;;;;5032118;28;20375;-79
2023/12/04 13:40:15;;;;;;;33.70;16.87;;;;;;;;;;5033421;28;20041;-81
2023/12/04 13:45:26;;;;;;;28.57;14.57;;;;;;;;;;5033109;28;20283;-82
2023/12/04 13:47:53;;;;;;;28.87;13.73;;;;;;;;;;5016142;28;20272;-80
2023/12/04 13:50:19;;;;;;;29.57;14.03;;;;;;;;;;5014917;28;21788;-80
2023/12/04 13:52:55;;;;;;;31.00;14.77;;;;;;;;;;5015515;28;20272;-80
2023/12/04 13:55:31;;;;;;;23.80;13.00;;;;;;;;;;5011899;28;20291;-82
2023/12/04 14:00:28;;;;;;;26.03;14.40;;;;;;;;;;5031793;28;20284;-79
2023/12/04 14:03:03;;;;;;;26.70;12.70;;;;;;;;;;5015653;28;20292;-84
2023/12/04 14:05:29;;;;;;;26.53;13.23;;;;;;;;;;5014014;28;20353;-80
2023/12/04 14:07:56;;;;;;;33.23;13.73;;;;;;;;;;5015802;28;20264;-80
2023/12/04 14:10:22;;;;;;;27.03;12.83;;;;;;;;;;5015489;28;21844;-79
2023/12/04 14:12:48;;;;;;;25.30;13.87;;;;;;;;;;5012836;28;20291;-76
2023/12/04 14:15:14;;;;;;;22.57;13.13;;;;;;;;;;5013505;28;20284;-79
2023/12/04 14:17:40;;;;;;;24.03;13.10;;;;;;;;;;5015329;28;20272;-78
2023/12/04 14:20:17;;;;;;;23.97;12.47;;;;;;;;;;5015495;28;20057;-81
2023/12/04 14:22:43;;;;;;;24.27;13.13;;;;;;;;;;5015437;28;20447;-80
2023/12/04 14:25:09;;;;;;;22.00;12.20;;;;;;;;;;5015732;28;20268;-80
2023/12/04 14:27:35;;;;;;;24.17;12.00;;;;;;;;;;5013296;28;20304;-79